createdAt,value
2022-10-05T00:00:45.799Z,101007.28
2022-10-05T00:03:39.109Z,100999.50
2022-10-05T00:06:11.254Z,101002.09
2022-10-05T00:08:39.260Z,101000.38
2022-10-05T00:11:08.343Z,100995.06
2022-10-05T00:13:36.058Z,101003.81
2022-10-05T00:16:16.240Z,101003.88
2022-10-05T00:18:49.502Z,101008.22
2022-10-05T00:21:29.057Z,100996.84
2022-10-05T00:23:58.205Z,100989.84
2022-10-05T00:26:32.937Z,100995.72
2022-10-05T00:29:02.534Z,101004.44
2022-10-05T00:31:35.851Z,100996.53
2022-10-05T00:34:03.702Z,100996.47
2022-10-05T00:36:31.469Z,100994.63
2022-10-05T00:39:02.001Z,100996.53
2022-10-05T00:41:40.600Z,101005.19
2022-10-05T00:44:29.758Z,100998.06
2022-10-05T00:47:32.142Z,101001.50
2022-10-05T00:50:21.149Z,100991.13
2022-10-05T00:53:00.137Z,101001.75
2022-10-05T00:55:43.332Z,101000.81
2022-10-05T00:58:11.058Z,101008.03
2022-10-05T01:01:05.235Z,101008.97
2022-10-05T01:04:11.126Z,101016.03
2022-10-05T01:06:54.160Z,101014.06
2022-10-05T01:09:41.034Z,101015.72
2022-10-05T01:12:41.507Z,101000.69
2022-10-05T01:15:15.056Z,100996.28
2022-10-05T01:18:00.884Z,100991.94
2022-10-05T01:20:44.487Z,100992.59
2022-10-05T01:23:22.033Z,100994.34
2022-10-05T01:26:37.053Z,101006.72
2022-10-05T01:29:05.052Z,101010.09
2022-10-05T01:31:32.907Z,101007.63
2022-10-05T01:34:22.731Z,101013.66
2022-10-05T01:37:12.547Z,101010.16
2022-10-05T01:39:50.409Z,100999.78
2022-10-05T01:42:33.685Z,101017.16
2022-10-05T01:45:17.533Z,101008.41
2022-10-05T01:47:54.388Z,101015.34
2022-10-05T01:51:04.675Z,101015.41
2022-10-05T01:53:50.781Z,100996.13
2022-10-05T01:56:33.516Z,100989.13
2022-10-05T01:59:31.064Z,100995.16
2022-10-05T02:02:04.170Z,101004.16
2022-10-05T02:05:02.057Z,101012.81
2022-10-05T02:07:33.602Z,101011.91
2022-10-05T02:10:26.109Z,101009.34
2022-10-05T02:13:09.906Z,101019.81
2022-10-05T02:15:47.383Z,101017.31
2022-10-05T02:18:29.050Z,101016.44
2022-10-05T02:20:58.538Z,101010.50
2022-10-05T02:23:33.409Z,100992.91
2022-10-05T02:26:02.257Z,100994.81
2022-10-05T02:28:44.160Z,100986.34
2022-10-05T02:31:17.994Z,100972.66
2022-10-05T02:33:48.322Z,100957.97
2022-10-05T02:36:26.313Z,100965.09
2022-10-05T02:39:36.977Z,100954.00
2022-10-05T02:42:30.181Z,100961.00
2022-10-05T02:45:49.702Z,100966.00
2022-10-05T02:48:41.085Z,100968.66
2022-10-05T02:51:17.813Z,100972.97
2022-10-05T02:54:15.051Z,100969.59
2022-10-05T02:57:13.252Z,100973.97
2022-10-05T02:59:56.260Z,100965.41
2022-10-05T03:02:26.545Z,100962.56
2022-10-05T03:05:12.887Z,100970.53
2022-10-05T03:07:48.427Z,100979.28
2022-10-05T03:10:29.975Z,100978.41
2022-10-05T03:13:07.006Z,100983.78
2022-10-05T03:15:35.441Z,100995.97
2022-10-05T03:18:09.904Z,100987.22
2022-10-05T03:21:03.995Z,100980.28
2022-10-05T03:23:53.695Z,100999.47
2022-10-05T03:27:01.120Z,101010.69
2022-10-05T03:29:41.433Z,101008.16
2022-10-05T03:32:19.795Z,100999.25
2022-10-05T03:34:59.507Z,101005.16
2022-10-05T03:37:44.758Z,101006.00
2022-10-05T03:40:24.221Z,101012.97
2022-10-05T03:43:16.756Z,101013.75
2022-10-05T03:45:47.800Z,101011.84
2022-10-05T03:48:25.493Z,100992.72
2022-10-05T03:51:21.049Z,100994.53
2022-10-05T03:53:57.476Z,100991.84
2022-10-05T03:56:50.827Z,100969.34
2022-10-05T03:59:39.181Z,100976.38
2022-10-05T04:02:31.494Z,100983.38
2022-10-05T04:05:14.211Z,100992.03
2022-10-05T04:07:46.731Z,100997.28
2022-10-05T04:10:47.256Z,100982.44
2022-10-05T04:13:38.330Z,100979.69
2022-10-05T04:16:20.017Z,100993.78
2022-10-05T04:18:57.423Z,100981.53
2022-10-05T04:21:40.033Z,100968.63
2022-10-05T04:24:35.630Z,100964.22
2022-10-05T04:27:16.519Z,100965.19
2022-10-05T04:30:16.765Z,100973.97
2022-10-05T04:32:57.213Z,100981.09
2022-10-05T04:36:03.553Z,100974.75
2022-10-05T04:38:56.150Z,100970.50
2022-10-05T04:41:47.627Z,100974.03
2022-10-05T04:44:44.349Z,100976.66
2022-10-05T04:47:39.953Z,100983.59
2022-10-05T04:50:44.552Z,100979.28
2022-10-05T04:53:31.048Z,100979.41
2022-10-05T04:56:15.426Z,100988.97
2022-10-05T04:59:13.519Z,100995.84
2022-10-05T05:02:18.698Z,100993.22
2022-10-05T05:05:08.106Z,100981.16
2022-10-05T05:07:39.693Z,100996.78
2022-10-05T05:10:19.788Z,100990.66
2022-10-05T05:13:26.444Z,101001.00
2022-10-05T05:16:21.575Z,101000.91
2022-10-05T05:19:08.507Z,101000.69
2022-10-05T05:21:44.958Z,100999.72
2022-10-05T05:24:33.878Z,101000.28
2022-10-05T05:27:01.917Z,101008.75
2022-10-05T05:29:35.082Z,101012.09
2022-10-05T05:32:09.097Z,101003.22
2022-10-05T05:35:19.085Z,101016.09
2022-10-05T05:38:00.967Z,101015.97
2022-10-05T05:40:35.422Z,101017.41
2022-10-05T05:43:32.376Z,101009.41
2022-10-05T05:46:08.262Z,101007.56
2022-10-05T05:48:42.276Z,101002.03
2022-10-05T05:51:21.431Z,100990.03
2022-10-05T05:53:59.390Z,101000.53
2022-10-05T05:56:38.245Z,101001.91
2022-10-05T05:59:22.544Z,101001.03
2022-10-05T06:01:57.589Z,101010.41
2022-10-05T06:05:06.533Z,101000.75
2022-10-05T06:07:38.065Z,101009.88
2022-10-05T06:10:29.416Z,101012.38
2022-10-05T06:13:14.714Z,101007.91
2022-10-05T06:16:09.161Z,101006.53
2022-10-05T06:18:41.890Z,101012.72
2022-10-05T06:21:35.937Z,101023.72
2022-10-05T06:24:55.324Z,101015.72
2022-10-05T06:27:57.785Z,101004.13
2022-10-05T06:30:33.530Z,101008.00
2022-10-05T06:33:16.147Z,101013.38
2022-10-05T06:36:15.082Z,101004.59
2022-10-05T06:38:51.909Z,101005.06
2022-10-05T06:41:59.901Z,100993.44
2022-10-05T06:44:47.537Z,100999.41
2022-10-05T06:48:11.535Z,101027.03
2022-10-05T06:51:15.416Z,101014.81
2022-10-05T06:54:31.762Z,101013.50
2022-10-05T06:57:14.293Z,101028.28
2022-10-05T07:00:02.401Z,101031.44
2022-10-05T07:02:54.478Z,101022.22
2022-10-05T07:05:46.357Z,101021.94
2022-10-05T07:08:24.368Z,101035.16
2022-10-05T07:11:06.785Z,101024.16
2022-10-05T07:14:00.904Z,101035.03
2022-10-05T07:17:16.751Z,101018.28
2022-10-05T07:20:06.937Z,101022.31
2022-10-05T07:23:14.922Z,101021.59
2022-10-05T07:26:08.957Z,101020.59
2022-10-05T07:29:14.715Z,101014.38
2022-10-05T07:31:48.562Z,101009.84
2022-10-05T07:34:47.993Z,101004.06
2022-10-05T07:37:49.209Z,101003.03
2022-10-05T07:40:41.716Z,101009.19
2022-10-05T07:43:21.946Z,101008.22
2022-10-05T07:46:08.487Z,101008.19
2022-10-05T07:48:55.085Z,101012.44
2022-10-05T07:51:25.658Z,101000.72
2022-10-05T07:54:56.323Z,101002.81
2022-10-05T07:57:46.085Z,101000.75
2022-10-05T08:00:43.183Z,100992.97
2022-10-05T08:03:20.532Z,100992.19
2022-10-05T08:05:48.432Z,101002.59
2022-10-05T08:08:53.810Z,100997.34
2022-10-05T08:11:58.185Z,101001.19
2022-10-05T08:14:43.103Z,100998.91
2022-10-05T08:17:28.971Z,100997.97
2022-10-05T08:20:09.905Z,100993.56
2022-10-05T08:22:47.161Z,100985.88
2022-10-05T08:25:26.997Z,100992.00
2022-10-05T08:28:22.454Z,100994.31
2022-10-05T08:31:03.920Z,100988.94
2022-10-05T08:33:44.352Z,100993.22
2022-10-05T08:36:15.856Z,100987.69
2022-10-05T08:38:44.499Z,100980.09
2022-10-05T08:41:53.800Z,100974.50
2022-10-05T08:44:59.116Z,100978.69
2022-10-05T08:47:35.056Z,100976.34
2022-10-05T08:50:08.526Z,100976.53
2022-10-05T08:53:07.894Z,100993.63
2022-10-05T08:56:06.522Z,100983.88
2022-10-05T08:58:49.376Z,100982.25
2022-10-05T09:01:41.326Z,100973.09
2022-10-05T09:04:38.423Z,100981.75
2022-10-05T09:07:09.936Z,100981.84
2022-10-05T09:10:00.875Z,100979.41
2022-10-05T09:12:42.997Z,100973.50
2022-10-05T09:15:48.427Z,100973.53
2022-10-05T09:18:54.763Z,100967.81
2022-10-05T09:21:50.200Z,100949.94
2022-10-05T09:24:33.363Z,100954.22
2022-10-05T09:27:25.988Z,100952.34
2022-10-05T09:30:15.740Z,100938.19
2022-10-05T09:33:25.929Z,100941.59
2022-10-05T09:36:24.928Z,100927.72
2022-10-05T09:39:11.325Z,100943.03
2022-10-05T09:41:45.229Z,100941.78
2022-10-05T09:44:19.113Z,100938.06
2022-10-05T09:46:53.636Z,100935.75
2022-10-05T09:49:59.854Z,100925.31
2022-10-05T09:52:53.573Z,100917.59
2022-10-05T09:55:33.506Z,100920.00
2022-10-05T09:58:24.830Z,100927.91
2022-10-05T10:01:34.620Z,100934.59
2022-10-05T10:04:10.178Z,100937.75
2022-10-05T10:07:13.303Z,100943.53
2022-10-05T10:10:08.172Z,100940.50
2022-10-05T10:12:41.644Z,100943.44
2022-10-05T10:15:38.447Z,100942.22
2022-10-05T10:18:25.277Z,100946.94
2022-10-05T10:21:30.155Z,100941.97
2022-10-05T10:24:00.794Z,100941.00
2022-10-05T10:27:02.833Z,100952.78
2022-10-05T10:29:40.130Z,100949.78
2022-10-05T10:32:13.839Z,100939.03
2022-10-05T10:34:41.769Z,100954.06
2022-10-05T10:37:35.473Z,100955.22
2022-10-05T10:40:27.008Z,100964.13
2022-10-05T10:43:13.832Z,100958.75
2022-10-05T10:46:07.364Z,100953.66
2022-10-05T10:48:50.092Z,100921.72
2022-10-05T10:51:49.383Z,100915.47
2022-10-05T10:54:48.856Z,100913.84
2022-10-05T10:57:48.659Z,100905.38
2022-10-05T11:00:54.976Z,100912.13
2022-10-05T11:03:53.376Z,100905.69
2022-10-05T11:06:33.087Z,100904.00
2022-10-05T11:09:34.239Z,100892.72
2022-10-05T11:12:43.134Z,100893.28
2022-10-05T11:15:13.643Z,100891.78
2022-10-05T11:18:00.666Z,100879.69
2022-10-05T11:20:49.742Z,100873.38
2022-10-05T11:23:54.095Z,100880.53
2022-10-05T11:27:03.559Z,100887.38
2022-10-05T11:30:06.015Z,100890.44
2022-10-05T11:32:41.790Z,100886.31
2022-10-05T11:35:34.426Z,100886.00
2022-10-05T11:38:05.033Z,100878.31
2022-10-05T11:41:17.767Z,100875.44
2022-10-05T11:44:07.772Z,100869.09
2022-10-05T11:46:52.474Z,100858.78
2022-10-05T11:49:26.439Z,100856.97
2022-10-05T11:52:16.915Z,100869.41
2022-10-05T11:55:15.449Z,100877.34
2022-10-05T11:57:50.337Z,100869.56
2022-10-05T12:00:19.898Z,100865.53
2022-10-05T12:03:12.400Z,100865.13
2022-10-05T12:06:01.795Z,100865.22
2022-10-05T12:08:38.739Z,100867.31
2022-10-05T12:11:36.843Z,100870.44
2022-10-05T12:14:24.257Z,100867.50
2022-10-05T12:17:02.749Z,100869.78
2022-10-05T12:19:45.757Z,100868.25
2022-10-05T12:22:23.009Z,100868.25
2022-10-05T12:25:19.379Z,100867.69
2022-10-05T12:27:51.512Z,100858.69
2022-10-05T12:30:25.863Z,100866.75
2022-10-05T12:33:02.487Z,100858.00
2022-10-05T12:35:48.999Z,100854.69
2022-10-05T12:38:28.503Z,100857.25
2022-10-05T12:41:36.683Z,100856.50
2022-10-05T12:44:13.446Z,100850.44
2022-10-05T12:46:50.183Z,100861.44
2022-10-05T12:49:39.278Z,100842.09
2022-10-05T12:52:19.278Z,100853.09
2022-10-05T12:54:55.449Z,100857.06
2022-10-05T12:57:34.779Z,100846.25
2022-10-05T13:00:23.164Z,100850.16
2022-10-05T13:03:10.789Z,100848.91
2022-10-05T13:06:02.790Z,100863.31
2022-10-05T13:08:39.539Z,100867.53
2022-10-05T13:11:32.752Z,100864.88
2022-10-05T13:14:35.385Z,100864.75
2022-10-05T13:17:30.015Z,100859.41
2022-10-05T13:20:16.493Z,100859.03
2022-10-05T13:22:50.377Z,100861.53
2022-10-05T13:25:37.574Z,100860.97
2022-10-05T13:28:23.236Z,100858.09
2022-10-05T13:31:13.215Z,100860.34
2022-10-05T13:34:02.696Z,100861.41
2022-10-05T13:36:49.337Z,100857.78
2022-10-05T13:39:36.160Z,100854.28
2022-10-05T13:42:32.836Z,100851.72
2022-10-05T13:45:14.476Z,100859.09
2022-10-05T13:47:55.013Z,100860.69
2022-10-05T13:50:34.630Z,100853.94
2022-10-05T13:53:35.683Z,100856.94
2022-10-05T13:56:11.703Z,100852.16
2022-10-05T13:58:50.975Z,100846.25
2022-10-05T14:01:41.815Z,100852.06
2022-10-05T14:04:42.107Z,100859.75
2022-10-05T14:07:49.245Z,100861.91
2022-10-05T14:10:37.490Z,100853.06
2022-10-05T14:13:23.718Z,100830.78
2022-10-05T14:16:20.215Z,100835.63
2022-10-05T14:18:58.399Z,100832.88
2022-10-05T14:21:31.803Z,100831.88
2022-10-05T14:24:45.881Z,100842.63
2022-10-05T14:27:33.390Z,100838.06
2022-10-05T14:30:25.736Z,100837.44
2022-10-05T14:33:04.349Z,100828.03
2022-10-05T14:35:54.966Z,100821.56
2022-10-05T14:38:29.453Z,100828.50
2022-10-05T14:41:20.630Z,100821.88
2022-10-05T14:44:02.151Z,100824.19
2022-10-05T14:46:32.772Z,100827.94
2022-10-05T14:49:21.563Z,100820.94
2022-10-05T14:51:51.592Z,100823.25
2022-10-05T14:55:00.948Z,100816.25
2022-10-05T14:57:44.962Z,100824.13
2022-10-05T15:00:16.617Z,100815.28
2022-10-05T15:02:45.221Z,100824.66
2022-10-05T15:05:24.846Z,100823.56
2022-10-05T15:07:57.293Z,100819.38
2022-10-05T15:10:40.668Z,100819.56
2022-10-05T15:13:29.936Z,100811.97
2022-10-05T15:15:59.954Z,100807.38
2022-10-05T15:18:32.193Z,100815.28
2022-10-05T15:21:21.652Z,100797.75
2022-10-05T15:24:09.402Z,100798.78
2022-10-05T15:27:00.393Z,100808.06
2022-10-05T15:30:04.736Z,100817.22
2022-10-05T15:32:44.350Z,100808.72
2022-10-05T15:35:38.528Z,100799.31
2022-10-05T15:38:20.751Z,100804.97
2022-10-05T15:41:09.165Z,100790.69
2022-10-05T15:44:08.408Z,100786.56
2022-10-05T15:46:56.442Z,100787.13
2022-10-05T15:49:57.247Z,100781.44
2022-10-05T15:52:40.756Z,100777.88
2022-10-05T15:55:29.816Z,100782.72
2022-10-05T15:58:31.312Z,100801.25
2022-10-05T16:01:08.006Z,100809.94
2022-10-05T16:03:44.580Z,100801.97
2022-10-05T16:06:48.907Z,100788.78
2022-10-05T16:09:29.111Z,100777.00
2022-10-05T16:12:09.821Z,100787.28
2022-10-05T16:14:49.688Z,100791.97
2022-10-05T16:17:28.362Z,100774.59
2022-10-05T16:20:21.260Z,100775.75
2022-10-05T16:23:02.693Z,100772.75
2022-10-05T16:25:30.502Z,100775.00
2022-10-05T16:28:30.498Z,100770.00
2022-10-05T16:31:26.666Z,100766.81
2022-10-05T16:34:06.412Z,100759.69
2022-10-05T16:36:40.406Z,100742.47
2022-10-05T16:39:19.109Z,100751.13
2022-10-05T16:42:14.007Z,100741.38
2022-10-05T16:44:48.080Z,100745.22
2022-10-05T16:47:49.492Z,100750.50
2022-10-05T16:50:54.277Z,100749.78
2022-10-05T16:53:25.444Z,100744.78
2022-10-05T16:56:01.234Z,100743.13
2022-10-05T16:58:56.707Z,100750.91
2022-10-05T17:01:42.590Z,100747.34
2022-10-05T17:04:28.349Z,100746.19
2022-10-05T17:07:35.860Z,100741.84
2022-10-05T17:10:35.862Z,100747.91
2022-10-05T17:13:31.560Z,100760.44
2022-10-05T17:16:26.940Z,100766.22
2022-10-05T17:19:24.350Z,100767.69
2022-10-05T17:22:00.745Z,100758.00
2022-10-05T17:24:28.488Z,100770.69
2022-10-05T17:27:24.921Z,100759.38
2022-10-05T17:29:55.287Z,100760.97
2022-10-05T17:32:23.197Z,100757.66
2022-10-05T17:35:18.219Z,100755.56
2022-10-05T17:38:23.147Z,100763.78
2022-10-05T17:41:12.483Z,100752.72
2022-10-05T17:43:40.989Z,100752.41
2022-10-05T17:46:12.404Z,100748.97
2022-10-05T17:48:54.538Z,100741.47
2022-10-05T17:51:46.852Z,100742.59
2022-10-05T17:55:08.274Z,100747.78
2022-10-05T17:57:37.227Z,100733.03
2022-10-05T18:00:14.482Z,100742.84
2022-10-05T18:02:43.593Z,100747.56
2022-10-05T18:05:12.470Z,100752.41
2022-10-05T18:07:50.917Z,100749.19
2022-10-05T18:10:29.707Z,100746.41
2022-10-05T18:13:00.398Z,100747.50
2022-10-05T18:15:28.363Z,100744.19
2022-10-05T18:18:32.108Z,100744.94
2022-10-05T18:21:32.224Z,100747.63
2022-10-05T18:23:59.834Z,100735.97
2022-10-05T18:26:52.033Z,100745.72
2022-10-05T18:29:56.400Z,100739.66
2022-10-05T18:32:46.312Z,100738.56
2022-10-05T18:35:23.460Z,100742.84
2022-10-05T18:38:17.239Z,100740.53
2022-10-05T18:40:54.026Z,100743.56
2022-10-05T18:43:47.089Z,100739.13
2022-10-05T18:46:30.397Z,100737.44
2022-10-05T18:49:10.996Z,100737.44
2022-10-05T18:52:19.363Z,100738.41
2022-10-05T18:55:19.055Z,100736.31
2022-10-05T18:58:15.674Z,100732.28
2022-10-05T19:01:09.896Z,100733.16
2022-10-05T19:03:43.395Z,100732.91
2022-10-05T19:06:17.246Z,100734.72
2022-10-05T19:08:51.375Z,100734.56
2022-10-05T19:11:43.130Z,100740.63
2022-10-05T19:14:31.974Z,100739.25
2022-10-05T19:17:20.075Z,100734.78
2022-10-05T19:20:18.102Z,100733.19
2022-10-05T19:23:12.147Z,100740.28
2022-10-05T19:26:14.142Z,100738.59
2022-10-05T19:28:47.229Z,100730.75
2022-10-05T19:31:33.036Z,100737.59
2022-10-05T19:34:16.435Z,100724.38
2022-10-05T19:37:08.633Z,100731.50
2022-10-05T19:40:07.221Z,100734.59
2022-10-05T19:42:58.058Z,100736.75
2022-10-05T19:45:29.402Z,100738.75
2022-10-05T19:48:17.799Z,100742.50
2022-10-05T19:51:12.261Z,100738.31
2022-10-05T19:53:46.878Z,100718.78
2022-10-05T19:56:20.278Z,100738.22
2022-10-05T19:58:50.155Z,100728.81
2022-10-05T20:01:30.880Z,100733.56
2022-10-05T20:03:58.724Z,100738.16
2022-10-05T20:06:35.546Z,100744.25
2022-10-05T20:09:21.210Z,100739.06
2022-10-05T20:11:56.567Z,100747.53
2022-10-05T20:14:33.778Z,100750.66
2022-10-05T20:17:48.423Z,100751.56
2022-10-05T20:20:34.746Z,100757.50
2022-10-05T20:23:22.403Z,100751.09
2022-10-05T20:26:09.849Z,100754.41
2022-10-05T20:28:38.204Z,100747.72
2022-10-05T20:31:08.951Z,100752.91
2022-10-05T20:33:36.951Z,100751.78
2022-10-05T20:36:05.280Z,100759.28
2022-10-05T20:38:40.059Z,100762.53
2022-10-05T20:41:09.060Z,100757.91
2022-10-05T20:43:39.065Z,100756.47
2022-10-05T20:46:07.614Z,100761.03
2022-10-05T20:48:45.825Z,100755.44
2022-10-05T20:51:14.587Z,100755.81
2022-10-05T20:53:42.299Z,100759.41
2022-10-05T20:56:10.279Z,100762.97
2022-10-05T20:58:38.041Z,100763.06
2022-10-05T21:01:23.379Z,100757.72
2022-10-05T21:03:51.304Z,100756.84
2022-10-05T21:06:21.040Z,100758.03
2022-10-05T21:08:51.410Z,100760.84
2022-10-05T21:11:19.410Z,100760.78
2022-10-05T21:13:47.274Z,100766.16
2022-10-05T21:16:17.332Z,100778.69
2022-10-05T21:18:48.709Z,100765.88
2022-10-05T21:21:19.482Z,100773.84
2022-10-05T21:23:48.835Z,100775.09
2022-10-05T21:26:16.551Z,100769.31
2022-10-05T21:28:44.329Z,100777.03
2022-10-05T21:31:12.706Z,100769.50
2022-10-05T21:33:40.584Z,100766.38
2022-10-05T21:36:08.319Z,100775.41
2022-10-05T21:38:36.578Z,100774.66
2022-10-05T21:41:04.321Z,100784.81
2022-10-05T21:43:32.012Z,100776.63
2022-10-05T21:46:01.395Z,100778.19
2022-10-05T21:48:31.515Z,100779.31
2022-10-05T21:51:01.194Z,100775.41
2022-10-05T21:53:33.886Z,100781.59
2022-10-05T21:56:08.071Z,100779.34
2022-10-05T21:58:36.050Z,100782.66
2022-10-05T22:01:04.044Z,100772.16
2022-10-05T22:03:31.987Z,100773.94
2022-10-05T22:05:59.862Z,100776.09
2022-10-05T22:08:30.225Z,100783.34
2022-10-05T22:11:08.926Z,100779.06
2022-10-05T22:13:49.540Z,100779.50
2022-10-05T22:16:19.708Z,100783.91
2022-10-05T22:18:48.827Z,100780.59
2022-10-05T22:21:17.067Z,100783.84
2022-10-05T22:23:46.918Z,100786.81
2022-10-05T22:26:19.441Z,100787.00
2022-10-05T22:28:48.079Z,100779.16
2022-10-05T22:31:17.901Z,100782.13
2022-10-05T22:33:47.997Z,100777.72
2022-10-05T22:36:16.227Z,100781.63
2022-10-05T22:38:46.514Z,100778.38
2022-10-05T22:41:16.484Z,100776.66
2022-10-05T22:43:44.445Z,100779.91
2022-10-05T22:46:13.535Z,100782.94
2022-10-05T22:48:43.624Z,100780.53
2022-10-05T22:51:12.503Z,100780.25
2022-10-05T22:53:40.669Z,100781.13
2022-10-05T22:56:11.061Z,100790.06
2022-10-05T22:58:39.941Z,100782.66
2022-10-05T23:01:10.614Z,100784.13
2022-10-05T23:03:38.426Z,100790.56
2022-10-05T23:06:10.709Z,100791.25
2022-10-05T23:08:39.705Z,100790.78
2022-10-05T23:11:13.097Z,100792.97
2022-10-05T23:13:43.227Z,100789.47
2022-10-05T23:16:17.272Z,100791.34
2022-10-05T23:18:47.227Z,100800.09
2022-10-05T23:21:15.489Z,100794.59
2022-10-05T23:23:49.003Z,100798.03
2022-10-05T23:26:18.526Z,100797.88
2022-10-05T23:28:47.364Z,100803.44
2022-10-05T23:31:17.835Z,100801.66
2022-10-05T23:33:45.914Z,100803.69
2022-10-05T23:36:18.147Z,100801.66
2022-10-05T23:38:46.165Z,100803.69
2022-10-05T23:41:14.748Z,100810.25
2022-10-05T23:43:42.843Z,100807.66
2022-10-05T23:46:11.492Z,100804.97
2022-10-05T23:48:40.608Z,100801.66
2022-10-05T23:51:10.481Z,100809.81
2022-10-05T23:53:38.528Z,100799.63
2022-10-05T23:56:06.995Z,100801.13
2022-10-05T23:58:34.718Z,100801.28
